57400 SARREBOURG
Donnes mto: Actuelle jeudi, 21/10/2021 16:10
Date Horaire Temp. E. Hum. E. P.atmo. Pluie Vent Direction Direction Ensoleilleme Ev.Tr. UV Solaire P. de rose Temp au vent Rafales
21/10/2021 16:10 13.8 C 62 % 1011.3 hPa 0.0 l/m 23.9 km/h SO 229 40 min 0.254 mm 0.6 UV-I 292 W/m 6.6 C 13.8 C 40.2 km/h
21/10/2021 15:10 13.7 C 62 % 1011.6 hPa 0.0 l/m 23.8 km/h O-SO 238 50 min 0.254 mm 0.9 UV-I 109 W/m 6.6 C 13.7 C 40.2 km/h
21/10/2021 14:10 13.3 C 68 % 1011.7 hPa 0.0 l/m 25.9 km/h O-SO 237 10 min 0.203 mm 1.3 UV-I 113 W/m 7.5 C 13.3 C 48.3 km/h
21/10/2021 13:10 12.5 C 72 % 1012.5 hPa 0.0 l/m 20.6 km/h O-SO 247 10 min 0.178 mm 1.6 UV-I 547 W/m 7.6 C 12.5 C 40.2 km/h
21/10/2021 12:10 11.9 C 75 % 1012.0 hPa 0.0 l/m 22.1 km/h SO 214 40 min 0.177 mm 1.8 UV-I 290 W/m 7.6 C 11.9 C 40.2 km/h
21/10/2021 11:10 10.5 C 84 % 1011.8 hPa 0.0 l/m 21.4 km/h SO 236 10 min 0.076 mm 1.1 UV-I 260 W/m 7.9 C 10.5 C 37.0 km/h
21/10/2021 10:10 9.3 C 90 % 1011.1 hPa 0.0 l/m 28.7 km/h O 265 0 min 0.050 mm 0.0 UV-I 81 W/m 7.7 C 5.8 C 54.7 km/h
21/10/2021 09:10 9.7 C 90 % 1008.7 hPa 0.0 l/m 30.3 km/h O-SO 247 0 min 0.076 mm 0.0 UV-I 12 W/m 8.1 C 6.2 C 59.5 km/h
21/10/2021 08:10 11.4 C 80 % 1005.5 hPa 0.0 l/m 41.6 km/h SO 236 0 min 0.101 mm 0.0 UV-I 0 W/m 8.1 C 11.4 C 72.4 km/h
21/10/2021 07:10 12.4 C 75 % 1003.5 hPa 0.0 l/m 39.2 km/h O-SO 241 0 min 0.053 mm 0.0 UV-I 0 W/m 8.1 C 12.4 C 66.0 km/h
21/10/2021 06:10 12.2 C 78 % 1002.2 hPa 0.0 l/m 24.5 km/h O-SO 250 0 min 0.076 mm 0.0 UV-I 0 W/m 8.5 C 12.2 C 57.9 km/h
21/10/2021 05:10 12.6 C 78 % 1001.2 hPa 0.0 l/m 35.4 km/h O-SO 247 0 min 0.051 mm 0.0 UV-I 0 W/m 8.9 C 12.6 C 80.5 km/h
21/10/2021 04:10 13.8 C 92 % 1000.2 hPa 1.2 l/m 25.7 km/h O-SO 247 0 min 0.025 mm 0.0 UV-I 0 W/m 12.5 C 13.8 C 45.1 km/h
21/10/2021 03:10 13.9 C 92 % 999.3 hPa 1.0 l/m 22.5 km/h SO 225 0 min 0.025 mm 0.0 UV-I 0 W/m 12.6 C 13.9 C 51.5 km/h
21/10/2021 02:10 14.0 C 92 % 1000.9 hPa 0.2 l/m 22.5 km/h SO 225 0 min 0.025 mm 0.0 UV-I 0 W/m 12.7 C 14.0 C 43.5 km/h
21/10/2021 01:10 13.7 C 92 % 1002.3 hPa 2.8 l/m 14.5 km/h S-SO 202 0 min 0.025 mm 0.0 UV-I 0 W/m 12.4 C 13.7 C 33.8 km/h
21/10/2021 00:10 13.9 C 92 % 1004.4 hPa 3.4 l/m 14.5 km/h SO 225 0 min 0.025 mm 0.0 UV-I 0 W/m 12.6 C 13.9 C 35.4 km/h
20/10/2021 23:10 14.1 C 92 % 1005.3 hPa 1.0 l/m 14.5 km/h SO 225 0 min 0.025 mm 0.0 UV-I 0 W/m 12.8 C 14.1 C 29.0 km/h
20/10/2021 22:10 14.3 C 92 % 1005.9 hPa 0.4 l/m 15.6 km/h SO 235 0 min 0.025 mm 0.0 UV-I 0 W/m 13.0 C 14.3 C 33.8 km/h
20/10/2021 21:10 14.5 C 91 % 1007.0 hPa 4.8 l/m 15.0 km/h O-SO 237 0 min 0.025 mm 0.0 UV-I 0 W/m 13.0 C 14.5 C 27.4 km/h
20/10/2021 20:10 15.2 C 90 % 1007.5 hPa 1.4 l/m 13.2 km/h SO 221 0 min 0.026 mm 0.0 UV-I 0 W/m 13.6 C 15.2 C 32.2 km/h
20/10/2021 19:10 16.4 C 85 % 1007.9 hPa 0.4 l/m 15.5 km/h SO 236 0 min 0.051 mm 0.0 UV-I 0 W/m 13.9 C 16.4 C 29.0 km/h
20/10/2021 18:10 17.6 C 80 % 1008.4 hPa 0.0 l/m 13.2 km/h SO 218 0 min 0.050 mm 0.0 UV-I 0 W/m 14.1 C 17.6 C 25.7 km/h
20/10/2021 17:10 17.8 C 79 % 1009.2 hPa 0.0 l/m 14.3 km/h S-SO 213 0 min 0.076 mm 0.0 UV-I 28 W/m 14.1 C 17.8 C 25.7 km/h
20/10/2021 17:00 17.7 C 80 % 1009.4 hPa 0.0 l/m 13.5 km/h SO 234 0 min 0.000 mm 0.0 UV-I 30 W/m 14.2 C 17.7 C 22.5 km/h
_ Min-Heure 10:00 15:30 03:00 - 18:30 - - - - - - 15:30 10:00 17:00
Minimum _ 9.2 C 60 % 998.7 hPa - 11.7 km/h - - - - - - 6.2 C 5.5 C 22.5 km/h
_ Max-Heure 17:20 21:20 13:10 20:50 05:00 - - 11:10 15:10 12:10 13:10 17:00 17:20 05:10
Maximum _ 17.9 C 92 % 1012.5 hPa 2.4 l/m 41.8 km/h
O-SO
- - 10 min 0.254 mm 1.8 UV-I 547 W/m 14.2 C 17.9 C 80.5 km/h
O-SO
Moyenne _ 13.7 C 83 % 1006.8 hPa #16.6 l/m 21.8 km/h SO - #2:40 h #1.676 mm 1.2 UV-I 194 W/m 10.7 C 13.5 C 41.6 km/h
Station mto Vantage PRO 2 Plus Ventile